createdAt,value
2023-02-03T00:01:58.811Z,7.67
2023-02-03T00:04:25.452Z,11.20
2023-02-03T00:06:52.171Z,5.67
2023-02-03T00:09:19.604Z,8.37
2023-02-03T00:11:46.166Z,9.17
2023-02-03T00:14:12.784Z,9.10
2023-02-03T00:16:39.461Z,6.73
2023-02-03T00:19:06.125Z,15.37
2023-02-03T00:21:33.393Z,6.47
2023-02-03T00:23:59.960Z,6.30
2023-02-03T00:26:28.550Z,9.03
2023-02-03T00:28:55.346Z,6.70
2023-02-03T00:31:24.664Z,12.77
2023-02-03T00:33:58.335Z,7.40
2023-02-03T00:36:26.028Z,9.70
2023-02-03T00:38:53.124Z,8.00
2023-02-03T00:41:20.958Z,7.43
2023-02-03T00:43:48.472Z,9.83
2023-02-03T00:46:15.741Z,8.00
2023-02-03T00:48:42.421Z,9.23
2023-02-03T00:51:09.051Z,10.83
2023-02-03T00:53:35.739Z,8.47
2023-02-03T00:56:02.449Z,7.83
2023-02-03T00:58:29.052Z,10.97
2023-02-03T01:00:57.155Z,9.63
2023-02-03T01:03:24.042Z,8.37
2023-02-03T01:05:50.631Z,8.70
2023-02-03T01:08:17.296Z,7.17
2023-02-03T01:10:43.853Z,8.70
2023-02-03T01:13:10.542Z,7.87
2023-02-03T01:15:37.127Z,9.33
2023-02-03T01:18:03.881Z,8.23
2023-02-03T01:20:30.495Z,8.63
2023-02-03T01:22:57.567Z,7.63
2023-02-03T01:25:24.234Z,8.50
2023-02-03T01:27:50.873Z,9.90
2023-02-03T01:30:17.727Z,10.33
2023-02-03T01:32:44.295Z,3.60
2023-02-03T01:35:10.902Z,10.03
2023-02-03T01:37:37.464Z,8.43
2023-02-03T01:40:04.980Z,8.93
2023-02-03T01:42:33.909Z,9.23
2023-02-03T01:45:00.629Z,6.70
2023-02-03T01:47:46.427Z,6.00
2023-02-03T01:50:18.478Z,6.57
2023-02-03T01:52:50.687Z,7.83
2023-02-03T01:55:23.352Z,6.43
2023-02-03T01:58:15.862Z,8.67
2023-02-03T02:00:43.628Z,7.83
2023-02-03T02:03:10.701Z,7.93
2023-02-03T02:05:49.218Z,8.47
2023-02-03T02:08:18.454Z,7.37
2023-02-03T02:10:45.757Z,5.67
2023-02-03T02:13:13.350Z,7.53
2023-02-03T02:16:13.029Z,8.00
2023-02-03T02:19:17.202Z,5.43
2023-02-03T02:22:00.509Z,5.37
2023-02-03T02:24:59.281Z,4.43
2023-02-03T02:28:01.247Z,5.83
2023-02-03T02:30:40.162Z,5.40
2023-02-03T02:33:35.162Z,5.87
2023-02-03T02:36:17.699Z,6.67
2023-02-03T02:39:12.704Z,4.70
2023-02-03T02:42:08.229Z,6.10
2023-02-03T02:44:44.641Z,5.27
2023-02-03T02:47:17.837Z,4.43
2023-02-03T02:49:57.112Z,5.30
2023-02-03T02:52:25.800Z,5.77
2023-02-03T02:54:56.241Z,5.17
2023-02-03T02:57:27.981Z,5.40
2023-02-03T02:59:54.892Z,6.53
2023-02-03T03:02:21.433Z,5.17
2023-02-03T03:04:50.568Z,6.97
2023-02-03T03:07:20.158Z,4.97
2023-02-03T03:09:50.593Z,3.70
2023-02-03T03:12:24.859Z,4.63
2023-02-03T03:15:00.131Z,4.23
2023-02-03T03:17:37.425Z,4.57
2023-02-03T03:20:10.463Z,4.90
2023-02-03T03:22:43.839Z,3.87
2023-02-03T03:25:16.855Z,3.53
2023-02-03T03:27:49.721Z,2.83
2023-02-03T03:30:25.570Z,3.00
2023-02-03T03:32:53.037Z,3.60
2023-02-03T03:35:19.804Z,3.40
2023-02-03T03:37:56.622Z,3.43
2023-02-03T03:40:33.679Z,2.70
2023-02-03T03:43:05.501Z,3.13
2023-02-03T03:45:38.194Z,2.77
2023-02-03T03:48:19.212Z,3.00
2023-02-03T03:50:53.156Z,2.90
2023-02-03T03:53:21.877Z,3.30
2023-02-03T03:55:51.307Z,2.97
2023-02-03T03:58:29.645Z,2.77
2023-02-03T04:01:00.419Z,3.47
2023-02-03T04:03:49.361Z,3.17
2023-02-03T04:06:17.012Z,3.00
2023-02-03T04:08:43.608Z,3.07
2023-02-03T04:11:10.189Z,3.00
2023-02-03T04:13:36.850Z,3.10
2023-02-03T04:16:03.523Z,2.70
2023-02-03T04:18:30.154Z,2.97
2023-02-03T04:20:56.767Z,3.67
2023-02-03T04:23:23.345Z,3.50
2023-02-03T04:25:49.891Z,3.30
2023-02-03T04:28:16.533Z,3.37
2023-02-03T04:30:43.249Z,3.30
2023-02-03T04:33:09.866Z,3.50
2023-02-03T04:35:36.480Z,4.13
2023-02-03T04:38:03.154Z,3.60
2023-02-03T04:40:29.897Z,4.37
2023-02-03T04:42:56.633Z,5.23
2023-02-03T04:45:23.248Z,5.37
2023-02-03T04:47:54.279Z,6.27
2023-02-03T04:50:21.278Z,7.60
2023-02-03T04:52:47.926Z,6.00
2023-02-03T04:55:14.613Z,7.57
2023-02-03T04:57:41.191Z,7.03
2023-02-03T05:00:08.332Z,9.20
2023-02-03T05:02:34.968Z,8.20
2023-02-03T05:05:01.567Z,9.20
2023-02-03T05:07:28.137Z,8.63
2023-02-03T05:09:54.682Z,9.33
2023-02-03T05:12:21.241Z,11.40
2023-02-03T05:14:47.812Z,11.50
2023-02-03T05:17:14.379Z,13.00
2023-02-03T05:19:40.978Z,15.13
2023-02-03T05:22:07.577Z,16.70
2023-02-03T05:24:34.129Z,20.03
2023-02-03T05:27:00.691Z,19.33
2023-02-03T05:29:27.338Z,22.97
2023-02-03T05:31:53.929Z,23.07
2023-02-03T05:34:20.610Z,27.03
2023-02-03T05:36:47.267Z,31.40
2023-02-03T05:39:13.829Z,32.53
2023-02-03T05:41:52.750Z,33.40
2023-02-03T05:44:27.652Z,30.37
2023-02-03T05:46:56.656Z,29.63
2023-02-03T05:49:23.689Z,31.17
2023-02-03T05:51:51.797Z,31.47
2023-02-03T05:54:18.441Z,29.77
2023-02-03T05:56:45.028Z,35.37
2023-02-03T05:59:11.693Z,34.63
2023-02-03T06:01:38.712Z,33.10
2023-02-03T06:04:06.110Z,33.70
2023-02-03T06:06:33.919Z,34.73
2023-02-03T06:09:01.977Z,32.63
2023-02-03T06:11:28.724Z,35.20
2023-02-03T06:13:58.639Z,31.63
2023-02-03T06:16:26.802Z,31.37
2023-02-03T06:18:55.361Z,30.57
2023-02-03T06:21:22.554Z,30.47
2023-02-03T06:23:49.209Z,33.33
2023-02-03T06:26:16.157Z,27.80
2023-02-03T06:28:42.743Z,30.67
2023-02-03T06:31:09.449Z,29.63
2023-02-03T06:33:36.079Z,30.40
2023-02-03T06:36:02.685Z,31.57
2023-02-03T06:38:29.261Z,28.57
2023-02-03T06:40:55.846Z,27.23
2023-02-03T06:43:22.530Z,28.67
2023-02-03T06:45:49.155Z,25.67
2023-02-03T06:48:15.977Z,30.57
2023-02-03T06:50:46.396Z,31.73
2023-02-03T06:53:14.141Z,25.90
2023-02-03T06:55:40.761Z,28.00
2023-02-03T06:58:07.399Z,28.40
2023-02-03T07:00:33.955Z,25.47
2023-02-03T07:03:02.206Z,25.97
2023-02-03T07:05:28.963Z,28.83
2023-02-03T07:07:55.891Z,25.73
2023-02-03T07:10:22.557Z,27.03
2023-02-03T07:12:50.723Z,26.37
2023-02-03T07:15:17.570Z,26.17
2023-02-03T07:17:44.125Z,25.83
2023-02-03T07:20:11.245Z,23.10
2023-02-03T07:22:39.380Z,24.37
2023-02-03T07:25:06.212Z,23.70
2023-02-03T07:27:32.771Z,25.87
2023-02-03T07:29:59.312Z,22.73
2023-02-03T07:32:25.966Z,23.67
2023-02-03T07:34:52.504Z,21.97
2023-02-03T07:37:19.073Z,21.73
2023-02-03T07:39:46.100Z,21.50
2023-02-03T07:42:12.710Z,23.33
2023-02-03T07:44:39.608Z,22.20
2023-02-03T07:47:06.207Z,23.50
2023-02-03T07:49:32.738Z,19.67
2023-02-03T07:51:59.303Z,18.50
2023-02-03T07:54:27.718Z,21.17
2023-02-03T07:56:54.410Z,21.83
2023-02-03T07:59:21.373Z,19.17
2023-02-03T08:01:48.146Z,17.50
2023-02-03T08:04:16.573Z,17.27
2023-02-03T08:06:43.776Z,19.23
2023-02-03T08:09:10.322Z,14.53
2023-02-03T08:11:36.989Z,14.93
2023-02-03T08:14:03.941Z,14.50
2023-02-03T08:16:30.758Z,14.77
2023-02-03T08:18:58.308Z,18.23
2023-02-03T08:21:24.945Z,18.13
2023-02-03T08:23:51.559Z,17.13
2023-02-03T08:26:18.109Z,16.47
2023-02-03T08:28:49.029Z,15.07
2023-02-03T08:31:15.934Z,14.63
2023-02-03T08:33:42.668Z,13.33
2023-02-03T08:36:11.157Z,15.37
2023-02-03T08:38:39.184Z,13.07
2023-02-03T08:41:13.608Z,13.53
2023-02-03T08:43:40.258Z,12.30
2023-02-03T08:46:09.213Z,13.90
2023-02-03T08:48:36.023Z,12.47
2023-02-03T08:51:02.806Z,15.53
2023-02-03T08:53:29.459Z,10.93
2023-02-03T08:55:56.401Z,13.70
2023-02-03T08:58:23.242Z,12.80
2023-02-03T09:00:50.102Z,11.47
2023-02-03T09:03:16.918Z,11.13
2023-02-03T09:05:43.557Z,10.73
2023-02-03T09:08:10.156Z,12.07
2023-02-03T09:10:37.071Z,10.70
2023-02-03T09:13:03.649Z,8.57
2023-02-03T09:15:30.227Z,10.30
2023-02-03T09:17:57.772Z,8.87
2023-02-03T09:20:26.543Z,9.43
2023-02-03T09:22:54.883Z,11.10
2023-02-03T09:25:21.993Z,13.00
2023-02-03T09:27:48.675Z,8.60
2023-02-03T09:30:15.611Z,7.60
2023-02-03T09:32:42.181Z,8.80
2023-02-03T09:35:08.938Z,8.30
2023-02-03T09:37:35.543Z,6.60
2023-02-03T09:40:02.490Z,6.93
2023-02-03T09:42:58.912Z,8.63
2023-02-03T09:45:28.229Z,7.50
2023-02-03T09:48:00.455Z,6.87
2023-02-03T09:50:31.848Z,6.43
2023-02-03T09:53:01.320Z,6.27
2023-02-03T09:55:43.107Z,6.50
2023-02-03T09:58:20.995Z,6.67
2023-02-03T10:01:02.752Z,5.43
2023-02-03T10:04:04.961Z,8.17
2023-02-03T10:06:45.512Z,5.50
2023-02-03T10:09:25.470Z,7.37
2023-02-03T10:12:18.679Z,6.53
2023-02-03T10:14:54.106Z,6.93
2023-02-03T10:17:41.203Z,6.33
2023-02-03T10:20:21.910Z,5.47
2023-02-03T10:22:56.268Z,6.20
2023-02-03T10:25:49.529Z,6.23
2023-02-03T10:28:21.826Z,4.90
2023-02-03T10:31:00.484Z,3.00
2023-02-03T10:33:29.511Z,3.73
2023-02-03T10:36:17.256Z,4.20
2023-02-03T10:39:03.379Z,4.67
2023-02-03T10:41:31.287Z,4.57
2023-02-03T10:43:58.670Z,5.30
2023-02-03T10:46:31.562Z,2.97
2023-02-03T10:48:58.420Z,5.77
2023-02-03T10:51:27.880Z,4.97
2023-02-03T10:53:54.525Z,5.03
2023-02-03T10:56:32.108Z,6.73
2023-02-03T10:59:00.433Z,4.60
2023-02-03T11:01:38.715Z,4.70
2023-02-03T11:04:07.209Z,8.70
2023-02-03T11:06:36.240Z,12.73
2023-02-03T11:09:21.940Z,6.97
2023-02-03T11:11:48.508Z,12.30
2023-02-03T11:14:18.143Z,10.30
2023-02-03T11:16:47.254Z,12.07
2023-02-03T11:19:20.409Z,9.70
2023-02-03T11:21:51.007Z,10.87
2023-02-03T11:24:26.990Z,9.53
2023-02-03T11:27:04.772Z,9.67
2023-02-03T11:29:34.657Z,12.53
2023-02-03T11:32:17.907Z,8.37
2023-02-03T11:35:16.541Z,14.77
2023-02-03T11:37:49.706Z,12.23
2023-02-03T11:40:18.197Z,12.10
2023-02-03T11:43:06.360Z,12.63
2023-02-03T11:45:41.980Z,10.73
2023-02-03T11:48:36.125Z,14.47
2023-02-03T11:51:23.818Z,11.70
2023-02-03T11:54:06.325Z,13.27
2023-02-03T11:57:13.565Z,17.27
2023-02-03T12:00:05.328Z,15.43
2023-02-03T12:02:56.995Z,18.80
2023-02-03T12:05:45.560Z,14.07
2023-02-03T12:08:37.524Z,13.30
2023-02-03T12:11:40.128Z,16.03
2023-02-03T12:14:22.074Z,15.97
2023-02-03T12:17:09.253Z,16.80
2023-02-03T12:20:00.534Z,19.10
2023-02-03T12:22:48.384Z,18.70
2023-02-03T12:25:44.776Z,19.70
2023-02-03T12:28:33.215Z,22.90
2023-02-03T12:31:09.460Z,21.03
2023-02-03T12:33:44.339Z,19.00
2023-02-03T12:36:18.913Z,16.90
2023-02-03T12:38:53.330Z,23.07
2023-02-03T12:41:30.933Z,18.90
2023-02-03T12:44:08.392Z,18.73
2023-02-03T12:46:44.835Z,20.40
2023-02-03T12:49:30.540Z,23.13
2023-02-03T12:52:15.130Z,22.87
2023-02-03T12:54:57.269Z,6.93
2023-02-03T12:57:39.776Z,7.70
2023-02-03T13:00:31.019Z,6.87
2023-02-03T13:03:13.618Z,10.00
2023-02-03T13:05:54.563Z,9.80
2023-02-03T13:08:36.079Z,12.07
2023-02-03T13:11:28.835Z,7.00
2023-02-03T13:14:03.407Z,9.53
2023-02-03T13:16:40.788Z,9.50
2023-02-03T13:19:15.418Z,8.83
2023-02-03T13:21:42.048Z,13.63
2023-02-03T13:24:11.259Z,14.30
2023-02-03T13:27:05.917Z,15.63
2023-02-03T13:29:48.946Z,15.10
2023-02-03T13:32:43.903Z,18.80
2023-02-03T13:35:32.201Z,18.50
2023-02-03T13:38:31.052Z,13.17
2023-02-03T13:41:20.423Z,13.33
2023-02-03T13:43:51.099Z,15.27
2023-02-03T13:46:30.939Z,19.20
2023-02-03T13:49:01.095Z,21.43
2023-02-03T13:51:34.878Z,14.80
2023-02-03T13:54:07.705Z,15.40
2023-02-03T13:56:34.883Z,16.73
2023-02-03T13:59:05.800Z,23.90
2023-02-03T14:01:38.673Z,20.17
2023-02-03T14:04:31.727Z,19.70
2023-02-03T14:07:01.556Z,16.63
2023-02-03T14:09:31.126Z,21.37
2023-02-03T14:12:16.046Z,28.93
2023-02-03T14:14:45.643Z,21.47
2023-02-03T14:17:51.125Z,17.33
2023-02-03T14:20:26.937Z,24.33
2023-02-03T14:23:06.449Z,21.83
2023-02-03T14:25:44.149Z,18.13
2023-02-03T14:28:15.173Z,19.10
2023-02-03T14:31:05.966Z,18.93
2023-02-03T14:33:48.696Z,21.37
2023-02-03T14:36:37.947Z,23.60
2023-02-03T14:39:21.132Z,20.83
2023-02-03T14:42:19.984Z,15.90
2023-02-03T14:45:08.702Z,24.53
2023-02-03T14:47:49.575Z,23.83
2023-02-03T14:50:45.622Z,25.40
2023-02-03T14:53:30.719Z,23.97
2023-02-03T14:56:19.774Z,21.93
2023-02-03T14:58:51.948Z,21.60
2023-02-03T15:01:48.149Z,27.10
2023-02-03T15:04:14.835Z,21.53
2023-02-03T15:06:46.990Z,19.30
2023-02-03T15:09:43.004Z,23.47
2023-02-03T15:12:22.460Z,20.60
2023-02-03T15:14:49.130Z,25.47
2023-02-03T15:17:31.969Z,20.80
2023-02-03T15:19:58.596Z,20.27
2023-02-03T15:22:27.842Z,25.90
2023-02-03T15:25:04.089Z,20.83
2023-02-03T15:27:32.982Z,21.60
2023-02-03T15:30:21.540Z,18.83
2023-02-03T15:33:14.457Z,21.93
2023-02-03T15:35:43.288Z,22.87
2023-02-03T15:38:22.640Z,26.53
2023-02-03T15:40:54.578Z,21.80
2023-02-03T15:43:28.298Z,17.60
2023-02-03T15:46:04.782Z,23.63
2023-02-03T15:48:43.570Z,23.43
2023-02-03T15:51:19.128Z,20.50
2023-02-03T15:53:57.829Z,21.03
2023-02-03T15:56:41.196Z,16.30
2023-02-03T15:59:56.927Z,16.23
2023-02-03T16:02:44.141Z,21.57
2023-02-03T16:05:25.426Z,18.23
2023-02-03T16:07:52.881Z,16.90
2023-02-03T16:10:32.671Z,16.87
2023-02-03T16:13:20.265Z,18.30
2023-02-03T16:16:08.287Z,20.53
2023-02-03T16:18:36.812Z,19.83
2023-02-03T16:21:05.294Z,18.40
2023-02-03T16:23:32.705Z,21.07
2023-02-03T16:26:15.398Z,21.50
2023-02-03T16:29:01.556Z,20.77
2023-02-03T16:31:46.951Z,22.60
2023-02-03T16:34:37.914Z,18.93
2023-02-03T16:37:43.463Z,20.03
2023-02-03T16:40:30.233Z,20.37
2023-02-03T16:43:15.617Z,18.90
2023-02-03T16:46:00.977Z,19.70
2023-02-03T16:48:46.142Z,20.87
2023-02-03T16:51:16.948Z,16.37
2023-02-03T16:53:45.099Z,21.03
2023-02-03T16:56:13.162Z,25.50
2023-02-03T16:58:40.392Z,16.53
2023-02-03T17:01:07.911Z,15.67
2023-02-03T17:03:35.925Z,23.40
2023-02-03T17:06:05.512Z,20.50
2023-02-03T17:08:32.405Z,20.83
2023-02-03T17:11:19.477Z,16.97
2023-02-03T17:13:47.179Z,23.13
2023-02-03T17:16:20.043Z,22.03
2023-02-03T17:18:47.060Z,24.37
2023-02-03T17:21:23.196Z,17.77
2023-02-03T17:23:49.928Z,20.93
2023-02-03T17:26:16.855Z,18.33
2023-02-03T17:28:43.985Z,21.20
2023-02-03T17:31:14.950Z,24.33
2023-02-03T17:33:41.858Z,22.27
2023-02-03T17:36:15.356Z,22.20
2023-02-03T17:55:12.613Z,22.10
2023-02-03T17:57:39.431Z,21.07
2023-02-03T18:00:06.760Z,16.50
2023-02-03T18:02:33.445Z,20.03
2023-02-03T18:05:00.110Z,17.63
2023-02-03T18:07:26.701Z,21.83
2023-02-03T18:09:53.296Z,18.07
2023-02-03T18:12:20.072Z,21.47
2023-02-03T18:14:46.658Z,19.00
2023-02-03T18:17:13.267Z,18.17
2023-02-03T18:19:41.164Z,22.17
2023-02-03T18:22:07.970Z,22.00
2023-02-03T18:24:34.565Z,16.63
2023-02-03T18:27:02.435Z,18.47
2023-02-03T18:29:29.050Z,18.37
2023-02-03T18:31:55.628Z,19.10
2023-02-03T18:34:22.434Z,22.30
2023-02-03T18:36:49.182Z,16.33
2023-02-03T18:39:16.449Z,15.43
2023-02-03T18:41:43.115Z,14.13
2023-02-03T18:44:09.710Z,19.80
2023-02-03T18:46:36.325Z,16.07
2023-02-03T18:49:03.038Z,21.93
2023-02-03T18:51:29.711Z,13.40
2023-02-03T18:53:58.215Z,16.97
2023-02-03T18:56:28.038Z,15.00
2023-02-03T18:58:55.040Z,14.03
2023-02-03T19:01:27.180Z,15.93
2023-02-03T19:03:55.530Z,13.93
2023-02-03T19:06:24.186Z,11.07
2023-02-03T19:08:51.569Z,15.90
2023-02-03T19:11:18.828Z,13.37
2023-02-03T19:13:45.958Z,11.43
2023-02-03T19:16:14.712Z,12.17
2023-02-03T19:18:41.399Z,10.73
2023-02-03T19:21:08.357Z,10.80
2023-02-03T19:23:34.938Z,12.13
2023-02-03T19:26:02.693Z,15.07
2023-02-03T19:28:31.179Z,13.60
2023-02-03T19:31:10.723Z,11.13
2023-02-03T19:33:37.765Z,13.63
2023-02-03T19:36:08.638Z,11.67
2023-02-03T19:38:35.692Z,7.60
2023-02-03T19:41:02.481Z,11.47
2023-02-03T19:43:30.663Z,9.17
2023-02-03T19:45:57.256Z,12.37
2023-02-03T19:48:23.857Z,14.03
2023-02-03T19:50:50.587Z,9.53
2023-02-03T19:53:17.721Z,9.27
2023-02-03T19:55:45.305Z,8.87
2023-02-03T19:58:13.690Z,7.37
2023-02-03T20:00:40.475Z,11.80
2023-02-03T20:03:07.112Z,13.77
2023-02-03T20:05:34.461Z,11.10
2023-02-03T20:08:01.280Z,8.27
2023-02-03T20:10:28.759Z,10.67
2023-02-03T20:12:55.546Z,11.60
2023-02-03T20:15:22.383Z,12.07
2023-02-03T20:17:49.051Z,12.63
2023-02-03T20:20:19.205Z,8.73
2023-02-03T20:22:47.185Z,10.90
2023-02-03T20:25:14.263Z,10.07
2023-02-03T20:27:41.304Z,7.30
2023-02-03T20:30:08.662Z,8.93
2023-02-03T20:32:35.776Z,4.67
2023-02-03T20:35:04.045Z,6.23
2023-02-03T20:37:30.721Z,11.30
2023-02-03T20:39:57.338Z,5.97
2023-02-03T20:42:24.282Z,6.77
2023-02-03T20:44:50.842Z,4.87
2023-02-03T20:47:19.034Z,6.43
2023-02-03T20:49:46.094Z,9.83
2023-02-03T20:52:14.777Z,6.17
2023-02-03T20:54:42.486Z,7.77
2023-02-03T20:57:15.504Z,5.63
2023-02-03T20:59:44.358Z,7.97
2023-02-03T21:02:23.058Z,7.70
2023-02-03T21:05:00.094Z,6.40
2023-02-03T21:07:29.965Z,3.77
2023-02-03T21:09:58.638Z,7.00
2023-02-03T21:12:26.785Z,2.53
2023-02-03T21:14:54.975Z,2.10
2023-02-03T21:17:24.342Z,3.10
2023-02-03T21:19:51.967Z,1.00
2023-02-03T21:22:24.317Z,1.90
2023-02-03T21:24:53.660Z,2.40
2023-02-03T21:27:34.156Z,0.97
2023-02-03T21:30:03.553Z,3.80
2023-02-03T21:32:48.465Z,2.67
2023-02-03T21:35:33.673Z,2.23
2023-02-03T21:38:02.811Z,1.67
2023-02-03T21:40:34.403Z,1.77
2023-02-03T21:43:03.243Z,0.90
2023-02-03T21:45:41.538Z,0.63
2023-02-03T21:48:27.149Z,1.20
2023-02-03T21:50:55.610Z,1.13
2023-02-03T21:53:32.941Z,1.40
2023-02-03T21:56:18.892Z,1.13
2023-02-03T21:58:47.468Z,2.63
2023-02-03T22:01:16.719Z,1.27
2023-02-03T22:03:49.744Z,1.20
2023-02-03T22:06:20.330Z,2.23
2023-02-03T22:08:49.061Z,1.53
2023-02-03T22:11:18.376Z,1.03
2023-02-03T22:13:45.216Z,1.33
2023-02-03T22:16:14.095Z,1.10
2023-02-03T22:18:43.744Z,1.67
2023-02-03T22:21:10.720Z,2.20
2023-02-03T22:23:37.589Z,1.30
2023-02-03T22:26:04.545Z,1.90
2023-02-03T22:28:31.134Z,1.57
2023-02-03T22:30:57.742Z,0.90
2023-02-03T22:33:24.521Z,1.00
2023-02-03T22:35:51.321Z,3.10
2023-02-03T22:38:18.072Z,1.10
2023-02-03T22:40:44.707Z,1.33
2023-02-03T22:43:11.390Z,1.23
2023-02-03T22:45:38.071Z,2.00
2023-02-03T22:48:05.019Z,1.83
2023-02-03T22:50:35.955Z,1.30
2023-02-03T22:53:04.153Z,1.70
2023-02-03T22:55:31.281Z,1.00
2023-02-03T22:57:59.090Z,0.87
2023-02-03T23:00:25.993Z,3.63
2023-02-03T23:02:53.839Z,1.03
2023-02-03T23:05:21.393Z,1.73
2023-02-03T23:07:48.649Z,1.30
2023-02-03T23:10:24.310Z,1.30
2023-02-03T23:12:51.166Z,1.33
2023-02-03T23:15:18.195Z,2.13
2023-02-03T23:17:45.811Z,2.67
2023-02-03T23:20:14.595Z,1.00
2023-02-03T23:22:41.408Z,3.07
2023-02-03T23:25:08.454Z,1.80
2023-02-03T23:27:35.010Z,2.33
2023-02-03T23:30:01.752Z,2.90
2023-02-03T23:32:28.370Z,2.70
2023-02-03T23:35:13.795Z,2.27
2023-02-03T23:37:40.521Z,1.77
2023-02-03T23:40:07.546Z,2.33
2023-02-03T23:42:34.249Z,2.13
2023-02-03T23:45:02.699Z,2.10
2023-02-03T23:47:29.294Z,1.23
2023-02-03T23:49:56.099Z,2.80
2023-02-03T23:52:22.691Z,1.60
2023-02-03T23:54:49.270Z,2.97
2023-02-03T23:57:15.819Z,4.50
2023-02-03T23:59:42.386Z,2.10
